createdAt,value
2019-02-04T00:02:06.344Z,15.25
2019-02-04T00:04:38.582Z,15.24
2019-02-04T00:07:11.401Z,15.25
2019-02-04T00:09:43.546Z,15.25
2019-02-04T00:12:16.058Z,15.23
2019-02-04T00:14:48.254Z,15.21
2019-02-04T00:17:21.022Z,15.22
2019-02-04T00:19:53.126Z,15.20
2019-02-04T00:22:26.596Z,15.21
2019-02-04T00:24:58.816Z,15.22
2019-02-04T00:27:31.372Z,15.20
2019-02-04T00:30:03.745Z,15.22
2019-02-04T00:32:36.466Z,15.20
2019-02-04T00:35:08.651Z,15.21
2019-02-04T00:37:40.971Z,15.19
2019-02-04T00:40:14.660Z,15.20
2019-02-04T00:42:47.128Z,15.18
2019-02-04T00:45:19.429Z,15.16
2019-02-04T00:47:51.823Z,15.17
2019-02-04T00:50:24.201Z,15.19
2019-02-04T00:52:56.532Z,15.17
2019-02-04T00:55:29.183Z,15.16
2019-02-04T00:58:01.471Z,15.16
2019-02-04T01:00:33.905Z,15.15
2019-02-04T01:03:06.517Z,15.15
2019-02-04T01:05:38.806Z,15.14
2019-02-04T01:08:11.037Z,15.14
2019-02-04T01:10:43.511Z,15.13
2019-02-04T01:13:15.813Z,15.14
2019-02-04T01:15:48.709Z,15.13
2019-02-04T01:18:21.213Z,15.12
2019-02-04T01:20:53.627Z,15.13
2019-02-04T01:23:25.662Z,15.13
2019-02-04T01:25:58.065Z,15.13
2019-02-04T01:28:30.224Z,15.14
2019-02-04T01:31:02.708Z,15.11
2019-02-04T01:33:34.978Z,15.10
2019-02-04T01:36:07.316Z,15.09
2019-02-04T01:38:40.689Z,15.09
2019-02-04T01:41:13.321Z,15.08
2019-02-04T01:43:45.474Z,15.08
2019-02-04T01:46:18.363Z,15.07
2019-02-04T01:48:50.604Z,15.07
2019-02-04T01:51:22.965Z,15.02
2019-02-04T01:53:55.257Z,15.03
2019-02-04T01:56:28.712Z,15.03
2019-02-04T01:59:00.885Z,15.03
2019-02-04T02:01:33.421Z,15.00
2019-02-04T02:04:06.133Z,15.02
2019-02-04T02:06:41.397Z,15.00
2019-02-04T02:09:31.781Z,14.98
2019-02-04T02:12:03.975Z,14.98
2019-02-04T02:14:36.006Z,14.97
2019-02-04T02:17:08.160Z,14.98
2019-02-04T02:19:40.548Z,14.97
2019-02-04T02:22:12.789Z,14.98
2019-02-04T02:24:45.284Z,14.99
2019-02-04T02:27:17.438Z,14.96
2019-02-04T02:29:50.623Z,14.95
2019-02-04T02:32:22.755Z,14.96
2019-02-04T02:34:55.128Z,14.96
2019-02-04T02:37:27.321Z,14.94
2019-02-04T02:39:59.463Z,14.94
2019-02-04T02:42:31.650Z,14.92
2019-02-04T02:45:04.007Z,14.91
2019-02-04T02:47:38.318Z,14.91
2019-02-04T02:50:11.198Z,14.91
2019-02-04T02:52:43.513Z,14.91
2019-02-04T02:55:15.812Z,14.89
2019-02-04T02:57:48.049Z,14.91
2019-02-04T03:00:21.115Z,14.90
2019-02-04T03:02:53.419Z,14.90
2019-02-04T03:05:25.581Z,14.90
2019-02-04T03:07:58.728Z,14.88
2019-02-04T03:10:32.117Z,14.88
2019-02-04T03:13:04.170Z,14.86
2019-02-04T03:15:36.178Z,14.87
2019-02-04T03:18:09.464Z,14.88
2019-02-04T03:20:41.644Z,14.86
2019-02-04T03:23:13.804Z,14.85
2019-02-04T03:25:45.960Z,14.85
2019-02-04T03:28:19.276Z,14.86
2019-02-04T03:30:51.639Z,14.85
2019-02-04T03:33:23.992Z,14.86
2019-02-04T03:35:56.352Z,14.85
2019-02-04T03:38:28.559Z,14.85
2019-02-04T03:41:00.776Z,14.83
2019-02-04T03:43:33.090Z,14.83
2019-02-04T03:46:06.570Z,14.86
2019-02-04T03:48:38.754Z,14.94
2019-02-04T03:51:10.858Z,14.86
2019-02-04T03:56:14.211Z,14.84
2019-02-04T03:58:46.368Z,14.84
2019-02-04T04:01:19.189Z,14.84
2019-02-04T04:03:52.541Z,14.82
2019-02-04T04:06:24.774Z,14.81
2019-02-04T04:08:57.403Z,14.82
2019-02-04T04:11:29.760Z,14.80
2019-02-04T04:14:02.091Z,14.80
2019-02-04T04:16:34.155Z,14.82
2019-02-04T04:19:06.319Z,14.81
2019-02-04T04:21:40.210Z,14.81
2019-02-04T04:24:13.467Z,14.82
2019-02-04T04:26:45.744Z,14.81
2019-02-04T04:29:19.141Z,14.80
2019-02-04T04:31:51.559Z,14.80
2019-02-04T04:34:25.871Z,14.76
2019-02-04T04:36:58.185Z,14.78
2019-02-04T04:39:30.586Z,14.80
2019-02-04T04:42:02.886Z,14.80
2019-02-04T04:44:35.344Z,14.83
2019-02-04T04:47:07.631Z,14.84
2019-02-04T04:49:40.070Z,14.82
2019-02-04T04:52:12.303Z,14.79
2019-02-04T04:54:44.960Z,14.79
2019-02-04T04:57:17.331Z,14.77
2019-02-04T04:59:49.703Z,14.78
2019-02-04T05:02:21.883Z,14.77
2019-02-04T05:04:54.295Z,14.77
2019-02-04T05:07:26.534Z,14.79
2019-02-04T05:09:58.937Z,14.78
2019-02-04T05:12:31.160Z,14.77
2019-02-04T05:15:03.662Z,14.78
2019-02-04T05:17:35.795Z,14.79
2019-02-04T05:20:09.388Z,14.79
2019-02-04T05:22:41.556Z,14.79
2019-02-04T05:25:13.807Z,14.78
2019-02-04T05:27:45.976Z,14.77
2019-02-04T05:30:19.079Z,14.78
2019-02-04T05:32:51.421Z,14.83
2019-02-04T05:35:23.687Z,14.78
2019-02-04T05:37:58.809Z,14.78
2019-02-04T05:40:31.614Z,14.79
2019-02-04T05:43:03.788Z,14.78
2019-02-04T05:45:36.109Z,14.79
2019-02-04T05:48:09.168Z,14.77
2019-02-04T05:50:41.750Z,14.76
2019-02-04T05:53:13.998Z,14.77
2019-02-04T05:55:46.345Z,14.77
2019-02-04T05:58:18.556Z,14.76
2019-02-04T06:00:52.308Z,14.76
2019-02-04T06:03:24.481Z,14.78
2019-02-04T06:05:57.011Z,14.74
2019-02-04T06:08:29.337Z,14.75
2019-02-04T06:11:01.759Z,14.73
2019-02-04T06:13:33.900Z,14.75
2019-02-04T06:16:07.817Z,14.73
2019-02-04T06:18:40.039Z,14.73
2019-02-04T06:21:12.376Z,14.72
2019-02-04T06:23:44.958Z,14.73
2019-02-04T06:26:17.460Z,14.72
2019-02-04T06:28:49.523Z,14.73
2019-02-04T06:31:21.905Z,14.77
2019-02-04T06:33:54.188Z,14.78
2019-02-04T06:36:26.220Z,14.78
2019-02-04T06:38:58.744Z,14.76
2019-02-04T06:41:30.775Z,14.75
2019-02-04T06:44:03.002Z,14.75
2019-02-04T06:46:35.256Z,14.74
2019-02-04T06:49:12.403Z,14.75
2019-02-04T06:51:41.310Z,14.80
2019-02-04T06:54:13.727Z,14.77
2019-02-04T06:56:45.929Z,14.76
2019-02-04T06:59:18.237Z,14.79
2019-02-04T07:01:50.504Z,14.76
2019-02-04T07:04:22.786Z,14.81
2019-02-04T07:06:55.165Z,14.78
2019-02-04T07:09:27.312Z,14.74
2019-02-04T07:11:59.800Z,14.75
2019-02-04T07:14:32.548Z,14.73
2019-02-04T07:17:04.794Z,14.74
2019-02-04T07:19:37.544Z,14.73
2019-02-04T07:22:09.847Z,14.71
2019-02-04T07:24:43.171Z,14.72
2019-02-04T07:27:15.409Z,14.72
2019-02-04T07:29:49.204Z,14.76
2019-02-04T07:32:22.590Z,14.73
2019-02-04T07:34:54.851Z,14.75
2019-02-04T07:37:27.209Z,14.73
2019-02-04T07:40:00.767Z,14.72
2019-02-04T07:42:33.807Z,14.72
2019-02-04T07:45:06.102Z,14.71
2019-02-04T07:47:38.148Z,14.72
2019-02-04T07:50:12.340Z,14.71
2019-02-04T07:52:44.364Z,14.70
2019-02-04T07:55:16.717Z,14.72
2019-02-04T07:57:49.004Z,14.71
2019-02-04T08:00:22.531Z,14.71
2019-02-04T08:02:54.619Z,14.70
2019-02-04T08:05:26.946Z,14.70
2019-02-04T08:07:59.044Z,14.71
2019-02-04T08:10:31.257Z,14.70
2019-02-04T08:13:03.702Z,14.71
2019-02-04T08:15:39.527Z,14.70
2019-02-04T08:18:11.524Z,14.70
2019-02-04T08:20:44.268Z,14.70
2019-02-04T08:23:16.413Z,14.71
2019-02-04T08:25:48.827Z,14.71
2019-02-04T08:28:20.996Z,14.71
2019-02-04T08:30:53.640Z,14.71
2019-02-04T08:33:26.688Z,14.72
2019-02-04T08:35:58.873Z,14.71
2019-02-04T08:38:31.116Z,14.71
2019-02-04T08:41:03.442Z,14.72
2019-02-04T08:43:35.682Z,14.71
2019-02-04T08:46:08.158Z,14.72
2019-02-04T08:48:40.306Z,14.73
2019-02-04T08:51:13.174Z,14.73
2019-02-04T08:53:45.436Z,14.73
2019-02-04T08:56:17.611Z,14.73
2019-02-04T08:58:49.802Z,14.74
2019-02-04T09:01:22.248Z,14.76
2019-02-04T09:03:54.433Z,14.73
2019-02-04T09:06:26.632Z,14.74
2019-02-04T09:08:58.885Z,14.76
2019-02-04T09:11:31.120Z,14.77
2019-02-04T09:14:03.597Z,14.75
2019-02-04T09:16:35.815Z,14.75
2019-02-04T09:19:08.017Z,14.77
2019-02-04T09:21:40.612Z,14.76
2019-02-04T09:24:12.692Z,14.77
2019-02-04T09:26:45.349Z,14.77
2019-02-04T09:29:17.413Z,14.78
2019-02-04T09:31:49.703Z,14.76
2019-02-04T09:34:22.092Z,14.77
2019-02-04T09:36:54.478Z,14.78
2019-02-04T09:39:26.863Z,14.78
2019-02-04T09:41:58.990Z,14.78
2019-02-04T09:44:31.232Z,14.79
2019-02-04T09:47:03.428Z,14.80
2019-02-04T09:49:35.936Z,14.80
2019-02-04T09:52:08.641Z,14.80
2019-02-04T09:54:40.931Z,14.81
2019-02-04T09:57:13.178Z,14.81
2019-02-04T09:59:45.542Z,14.82
2019-02-04T10:02:17.648Z,14.83
2019-02-04T10:04:49.943Z,14.83
2019-02-04T10:07:21.938Z,14.84
2019-02-04T10:09:54.248Z,14.83
2019-02-04T10:12:26.273Z,14.86
2019-02-04T10:14:59.009Z,14.85
2019-02-04T10:17:31.429Z,14.86
2019-02-04T10:20:03.719Z,14.89
2019-02-04T10:22:35.950Z,14.88
2019-02-04T10:25:08.480Z,14.88
2019-02-04T10:27:40.783Z,14.88
2019-02-04T10:30:16.499Z,14.89
2019-02-04T10:32:48.820Z,14.89
2019-02-04T10:35:21.179Z,14.89
2019-02-04T10:37:53.721Z,14.90
2019-02-04T10:40:26.497Z,15.04
2019-02-04T10:42:58.737Z,14.98
2019-02-04T10:45:31.243Z,14.98
2019-02-04T10:48:03.469Z,14.99
2019-02-04T10:50:45.798Z,14.97
2019-02-04T10:53:10.652Z,14.97
2019-02-04T10:55:42.995Z,15.00
2019-02-04T10:58:16.159Z,15.04
2019-02-04T11:00:48.656Z,15.05
2019-02-04T11:03:20.695Z,15.00
2019-02-04T11:05:54.907Z,14.98
2019-02-04T11:08:27.177Z,14.99
2019-02-04T11:11:00.384Z,15.00
2019-02-04T11:13:32.509Z,15.00
2019-02-04T11:16:04.633Z,15.00
2019-02-04T11:18:36.794Z,15.01
2019-02-04T11:21:09.098Z,15.03
2019-02-04T11:23:41.338Z,15.03
2019-02-04T11:26:13.430Z,15.03
2019-02-04T11:28:45.646Z,15.04
2019-02-04T11:31:18.776Z,15.04
2019-02-04T11:33:50.864Z,15.05
2019-02-04T11:36:24.490Z,15.05
2019-02-04T11:38:57.207Z,15.05
2019-02-04T11:41:52.800Z,15.08
2019-02-04T11:44:25.226Z,15.07
2019-02-04T11:46:57.428Z,15.07
2019-02-04T11:49:29.585Z,15.09
2019-02-04T11:52:02.231Z,15.11
2019-02-04T11:54:34.502Z,15.12
2019-02-04T11:57:06.806Z,15.12
2019-02-04T11:59:39.055Z,15.13
2019-02-04T12:02:11.339Z,15.11
2019-02-04T12:04:45.002Z,15.12
2019-02-04T12:07:17.678Z,15.12
2019-02-04T12:09:49.907Z,15.13
2019-02-04T12:12:22.181Z,15.14
2019-02-04T12:14:56.583Z,15.15
2019-02-04T12:17:28.924Z,15.14
2019-02-04T12:20:02.408Z,15.15
2019-02-04T12:22:34.618Z,15.14
2019-02-04T12:25:07.045Z,15.14
2019-02-04T12:27:39.383Z,15.16
2019-02-04T12:30:14.038Z,15.16
2019-02-04T12:32:46.342Z,15.17
2019-02-04T12:35:18.607Z,15.16
2019-02-04T12:37:51.863Z,15.17
2019-02-04T12:40:24.044Z,15.19
2019-02-04T12:42:56.588Z,15.18
2019-02-04T12:45:29.648Z,15.20
2019-02-04T12:48:01.834Z,15.20
2019-02-04T12:50:34.101Z,15.22
2019-02-04T12:53:06.788Z,15.23
2019-02-04T12:55:39.031Z,15.24
2019-02-04T12:58:11.348Z,15.24
2019-02-04T13:00:43.699Z,15.26
2019-02-04T13:03:16.794Z,15.27
2019-02-04T13:05:50.644Z,15.26
2019-02-04T13:08:22.742Z,15.31
2019-02-04T13:10:54.914Z,15.36
2019-02-04T13:13:27.075Z,15.34
2019-02-04T13:15:59.250Z,15.32
2019-02-04T13:18:31.405Z,15.33
2019-02-04T13:21:03.639Z,15.36
2019-02-04T13:23:35.798Z,15.37
2019-02-04T13:26:07.949Z,15.35
2019-02-04T13:28:41.126Z,15.36
2019-02-04T13:31:13.293Z,15.34
2019-02-04T13:33:45.466Z,15.36
2019-02-04T13:36:17.640Z,15.40
2019-02-04T13:38:49.806Z,15.41
2019-02-04T13:41:22.396Z,15.43
2019-02-04T13:43:54.681Z,15.44
2019-02-04T13:46:26.848Z,15.43
2019-02-04T13:48:59.037Z,15.43
2019-02-04T13:51:31.255Z,15.51
2019-02-04T13:54:03.404Z,15.51
2019-02-04T13:56:36.734Z,15.50
2019-02-04T13:59:08.918Z,15.52
2019-02-04T14:01:41.095Z,15.51
2019-02-04T14:04:13.311Z,15.50
2019-02-04T14:06:45.446Z,15.49
2019-02-04T14:09:23.987Z,15.49
2019-02-04T14:11:56.308Z,15.48
2019-02-04T14:14:28.463Z,15.47
2019-02-04T14:17:00.756Z,15.48
2019-02-04T14:19:33.849Z,15.46
2019-02-04T14:22:09.441Z,15.49
2019-02-04T14:24:40.133Z,15.49
2019-02-04T14:27:12.677Z,15.49
2019-02-04T14:29:44.996Z,15.50
2019-02-04T14:32:17.211Z,15.49
2019-02-04T14:34:51.299Z,15.49
2019-02-04T14:37:23.208Z,15.49
2019-02-04T14:39:55.386Z,15.49
2019-02-04T14:42:27.601Z,15.48
2019-02-04T14:45:24.702Z,15.50
2019-02-04T14:48:06.055Z,15.51
2019-02-04T14:50:58.754Z,15.55
2019-02-04T14:54:05.101Z,15.56
2019-02-04T14:56:43.418Z,15.54
2019-02-04T14:59:34.103Z,15.54
2019-02-04T15:02:24.804Z,15.55
2019-02-04T15:05:03.576Z,15.53
2019-02-04T15:07:53.274Z,15.55
2019-02-04T15:10:31.988Z,15.55
2019-02-04T15:13:25.991Z,15.54
2019-02-04T15:16:04.721Z,15.56
2019-02-04T15:19:01.182Z,15.56
2019-02-04T15:21:43.244Z,15.56
2019-02-04T15:24:28.261Z,15.56
2019-02-04T15:27:28.398Z,15.57
2019-02-04T15:30:34.369Z,15.58
2019-02-04T15:33:28.412Z,15.59
2019-02-04T15:36:09.903Z,15.67
2019-02-04T15:39:13.212Z,15.81
2019-02-04T15:41:53.088Z,15.89
2019-02-04T15:44:50.215Z,15.96
2019-02-04T15:47:28.155Z,15.99
2019-02-04T15:50:23.081Z,16.02
2019-02-04T15:52:55.293Z,16.01
2019-02-04T15:55:27.775Z,16.07
2019-02-04T15:57:59.875Z,16.07
2019-02-04T16:00:32.371Z,16.11
2019-02-04T16:03:05.178Z,16.09
2019-02-04T16:05:37.665Z,16.13
2019-02-04T16:08:09.887Z,16.15
2019-02-04T16:10:42.266Z,16.15
2019-02-04T16:13:14.623Z,16.28
2019-02-04T16:15:47.419Z,16.98
2019-02-04T16:18:21.033Z,16.98
2019-02-04T16:20:53.399Z,16.98
2019-02-04T16:23:25.480Z,16.87
2019-02-04T16:25:57.588Z,16.76
2019-02-04T16:28:29.768Z,16.69
2019-02-04T16:31:01.986Z,16.68
2019-02-04T16:33:34.362Z,16.63
2019-02-04T16:36:06.497Z,16.63
2019-02-04T16:38:38.735Z,16.67
2019-02-04T16:41:10.951Z,16.65
2019-02-04T16:43:43.357Z,16.64
2019-02-04T16:46:15.569Z,16.66
2019-02-04T16:48:49.121Z,16.71
2019-02-04T16:51:21.805Z,16.73
2019-02-04T16:53:53.996Z,16.75
2019-02-04T16:56:26.225Z,16.76
2019-02-04T16:58:58.509Z,16.78
2019-02-04T17:01:30.692Z,16.86
2019-02-04T17:04:03.084Z,16.85
2019-02-04T17:06:35.570Z,16.89
2019-02-04T17:09:09.159Z,16.91
2019-02-04T17:11:41.430Z,16.94
2019-02-04T17:14:13.650Z,16.87
2019-02-04T17:16:45.904Z,16.87
2019-02-04T17:19:18.240Z,16.93
2019-02-04T17:21:50.405Z,16.96
2019-02-04T17:24:22.807Z,17.02
2019-02-04T17:26:55.469Z,17.04
2019-02-04T17:29:27.682Z,17.00
2019-02-04T17:32:00.514Z,17.03
2019-02-04T17:34:32.964Z,17.00
2019-02-04T17:37:05.129Z,17.07
2019-02-04T17:39:37.884Z,17.04
2019-02-04T17:42:10.045Z,17.05
2019-02-04T17:44:42.248Z,17.12
2019-02-04T17:47:14.569Z,17.07
2019-02-04T17:49:46.778Z,17.14
2019-02-04T17:52:19.061Z,17.14
2019-02-04T17:54:51.403Z,17.18
2019-02-04T17:57:23.617Z,17.34
2019-02-04T17:59:56.008Z,17.15
2019-02-04T18:02:28.303Z,17.18
2019-02-04T18:05:00.940Z,17.10
2019-02-04T18:07:33.561Z,17.09
2019-02-04T18:10:05.737Z,17.17
2019-02-04T18:12:37.973Z,17.20
2019-02-04T18:15:10.870Z,17.18
2019-02-04T18:17:43.283Z,17.21
2019-02-04T18:20:15.544Z,17.17
2019-02-04T18:22:47.683Z,17.25
2019-02-04T18:25:20.084Z,17.38
2019-02-04T18:27:52.253Z,17.38
2019-02-04T18:30:24.837Z,17.38
2019-02-04T18:32:56.932Z,17.40
2019-02-04T18:35:29.687Z,17.29
2019-02-04T18:38:01.873Z,17.31
2019-02-04T18:40:34.068Z,17.36
2019-02-04T18:43:06.407Z,17.44
2019-02-04T18:45:38.638Z,17.40
2019-02-04T18:48:10.840Z,17.47
2019-02-04T18:50:43.349Z,17.48
2019-02-04T18:53:15.542Z,17.61
2019-02-04T18:55:47.616Z,17.56
2019-02-04T18:58:19.826Z,17.59
2019-02-04T19:00:52.123Z,17.51
2019-02-04T19:03:24.233Z,17.44
2019-02-04T19:05:56.636Z,17.55
2019-02-04T19:08:28.798Z,17.60
2019-02-04T19:11:01.065Z,17.65
2019-02-04T19:13:36.292Z,17.60
2019-02-04T19:16:07.270Z,17.55
2019-02-04T19:18:39.477Z,17.34
2019-02-04T19:21:11.830Z,17.51
2019-02-04T19:23:44.018Z,17.43
2019-02-04T19:26:16.434Z,17.49
2019-02-04T19:28:50.882Z,17.35
2019-02-04T19:31:27.229Z,17.29
2019-02-04T19:33:59.444Z,17.12
2019-02-04T19:36:31.894Z,17.01
2019-02-04T19:39:05.135Z,16.98
2019-02-04T19:41:37.639Z,16.92
2019-02-04T19:44:10.081Z,16.91
2019-02-04T19:46:42.510Z,16.91
2019-02-04T19:49:14.733Z,16.91
2019-02-04T19:51:47.062Z,16.89
2019-02-04T19:54:21.567Z,16.85
2019-02-04T19:56:53.108Z,16.84
2019-02-04T19:59:25.719Z,16.82
2019-02-04T20:01:58.035Z,16.79
2019-02-04T20:04:30.608Z,16.80
2019-02-04T20:07:03.027Z,16.78
2019-02-04T20:09:35.229Z,16.76
2019-02-04T20:12:07.608Z,16.74
2019-02-04T20:14:40.009Z,16.74
2019-02-04T20:17:12.304Z,16.70
2019-02-04T20:19:45.155Z,16.71
2019-02-04T20:22:17.404Z,16.71
2019-02-04T20:24:49.980Z,16.70
2019-02-04T20:27:22.153Z,16.68
2019-02-04T20:29:54.497Z,16.67
2019-02-04T20:32:26.661Z,16.64
2019-02-04T20:34:59.340Z,16.66
2019-02-04T20:37:31.643Z,16.65
2019-02-04T20:40:03.751Z,16.61
2019-02-04T20:42:36.214Z,16.61
2019-02-04T20:45:08.445Z,16.58
2019-02-04T20:47:41.139Z,16.58
2019-02-04T20:50:15.623Z,16.58
2019-02-04T20:52:47.970Z,16.58
2019-02-04T20:55:20.031Z,16.59
2019-02-04T20:57:52.504Z,16.57
2019-02-04T21:00:25.708Z,16.57
2019-02-04T21:02:58.285Z,16.58
2019-02-04T21:05:30.514Z,16.54
2019-02-04T21:08:02.978Z,16.52
2019-02-04T21:10:35.198Z,16.54
2019-02-04T21:13:07.714Z,16.56
2019-02-04T21:15:39.939Z,16.53
2019-02-04T21:18:12.243Z,16.51
2019-02-04T21:20:44.747Z,16.50
2019-02-04T21:23:17.254Z,16.49
2019-02-04T21:25:49.414Z,16.49
2019-02-04T21:28:21.997Z,16.52
2019-02-04T21:30:54.043Z,16.49
2019-02-04T21:33:26.498Z,16.49
2019-02-04T21:35:58.889Z,16.47
2019-02-04T21:38:31.154Z,16.49
2019-02-04T21:41:03.604Z,16.50
2019-02-04T21:43:35.837Z,16.46
2019-02-04T21:46:08.220Z,16.50
2019-02-04T21:48:40.532Z,16.51
2019-02-04T21:51:13.125Z,16.51
2019-02-04T21:53:45.412Z,16.49
2019-02-04T21:56:17.713Z,16.47
2019-02-04T21:58:49.910Z,16.47
2019-02-04T22:01:22.191Z,16.47
2019-02-04T22:03:54.266Z,16.47
2019-02-04T22:06:26.436Z,16.45
2019-02-04T22:08:58.618Z,16.43
2019-02-04T22:11:30.806Z,16.45
2019-02-04T22:14:03.120Z,16.46
2019-02-04T22:16:35.407Z,16.43
2019-02-04T22:19:07.883Z,16.45
2019-02-04T22:21:40.108Z,16.45
2019-02-04T22:24:13.265Z,16.46
2019-02-04T22:26:45.578Z,16.46
2019-02-04T22:29:18.171Z,16.46
2019-02-04T22:31:50.344Z,16.45
2019-02-04T22:34:22.792Z,16.44
2019-02-04T22:36:55.335Z,16.40
2019-02-04T22:39:27.615Z,16.43
2019-02-04T22:41:59.960Z,16.43
2019-02-04T22:44:32.003Z,16.42
2019-02-04T22:47:04.246Z,16.43
2019-02-04T22:49:36.832Z,16.42
2019-02-04T22:52:09.006Z,16.42
2019-02-04T22:54:41.268Z,16.41
2019-02-04T22:57:13.653Z,16.41
2019-02-04T22:59:45.822Z,16.40
2019-02-04T23:02:18.122Z,16.38
2019-02-04T23:04:51.521Z,16.37
2019-02-04T23:07:23.745Z,16.36
2019-02-04T23:09:55.919Z,16.36
2019-02-04T23:12:28.361Z,16.38
2019-02-04T23:15:00.438Z,16.36
2019-02-04T23:17:32.598Z,16.39
2019-02-04T23:20:04.817Z,16.34
2019-02-04T23:22:37.036Z,16.35
2019-02-04T23:25:09.355Z,16.35
2019-02-04T23:27:41.671Z,16.37
2019-02-04T23:30:13.906Z,16.36
2019-02-04T23:32:46.155Z,16.36
2019-02-04T23:35:18.499Z,16.35
2019-02-04T23:37:50.700Z,16.33
2019-02-04T23:40:22.975Z,16.33
2019-02-04T23:42:55.274Z,16.34
2019-02-04T23:45:27.572Z,16.33
2019-02-04T23:48:00.245Z,16.31
2019-02-04T23:50:32.529Z,16.32
2019-02-04T23:53:05.652Z,16.32
2019-02-04T23:55:38.391Z,16.32
2019-02-04T23:58:10.521Z,16.31
